sensor_id;sensor_type;location;lat;lon;timestamp;pressure;altitude;pressure_sealevel;temperature;humidity
76257;BME280;65074;50.436;8.672;2022-11-14T00:01:41;99542.63;;;2.90;100.00
76257;BME280;65074;50.436;8.672;2022-11-14T00:04:25;99547.97;;;2.96;100.00
76257;BME280;65074;50.436;8.672;2022-11-14T00:07:09;99544.06;;;2.92;100.00
76257;BME280;65074;50.436;8.672;2022-11-14T00:09:52;99542.41;;;2.85;100.00
76257;BME280;65074;50.436;8.672;2022-11-14T00:12:37;99539.94;;;2.83;100.00
76257;BME280;65074;50.436;8.672;2022-11-14T00:15:20;99541.31;;;2.79;100.00
76257;BME280;65074;50.436;8.672;2022-11-14T00:18:04;99544.41;;;2.76;100.00
76257;BME280;65074;50.436;8.672;2022-11-14T00:20:50;99532.50;;;2.72;100.00
76257;BME280;65074;50.436;8.672;2022-11-14T00:23:34;99537.28;;;2.83;100.00
76257;BME280;65074;50.436;8.672;2022-11-14T00:26:18;99537.75;;;2.93;100.00
76257;BME280;65074;50.436;8.672;2022-11-14T00:29:02;99541.56;;;2.84;100.00
76257;BME280;65074;50.436;8.672;2022-11-14T00:31:46;99540.13;;;2.82;100.00
76257;BME280;65074;50.436;8.672;2022-11-14T00:34:30;99541.00;;;2.89;100.00
76257;BME280;65074;50.436;8.672;2022-11-14T00:37:14;99537.06;;;2.85;100.00
76257;BME280;65074;50.436;8.672;2022-11-14T00:39:57;99535.03;;;2.87;100.00
76257;BME280;65074;50.436;8.672;2022-11-14T00:42:41;99532.97;;;2.82;100.00
76257;BME280;65074;50.436;8.672;2022-11-14T00:45:25;99527.06;;;2.87;100.00
76257;BME280;65074;50.436;8.672;2022-11-14T00:48:09;99521.97;;;2.85;100.00
76257;BME280;65074;50.436;8.672;2022-11-14T00:50:53;99531.59;;;2.86;100.00
76257;BME280;65074;50.436;8.672;2022-11-14T00:53:37;99524.25;;;2.88;100.00
76257;BME280;65074;50.436;8.672;2022-11-14T00:56:21;99522.78;;;2.86;100.00
76257;BME280;65074;50.436;8.672;2022-11-14T00:59:05;99524.41;;;2.87;100.00
76257;BME280;65074;50.436;8.672;2022-11-14T01:01:49;99519.84;;;2.74;100.00
76257;BME280;65074;50.436;8.672;2022-11-14T01:04:33;99518.59;;;2.70;100.00
76257;BME280;65074;50.436;8.672;2022-11-14T01:07:16;99514.88;;;2.64;100.00
76257;BME280;65074;50.436;8.672;2022-11-14T01:10:00;99509.91;;;2.55;100.00
76257;BME280;65074;50.436;8.672;2022-11-14T01:12:44;99508.25;;;2.47;100.00
76257;BME280;65074;50.436;8.672;2022-11-14T01:15:28;99498.78;;;2.38;100.00
76257;BME280;65074;50.436;8.672;2022-11-14T01:18:16;99504.84;;;2.32;100.00
76257;BME280;65074;50.436;8.672;2022-11-14T01:21:03;99499.56;;;2.32;100.00
76257;BME280;65074;50.436;8.672;2022-11-14T01:23:47;99498.34;;;2.35;100.00
76257;BME280;65074;50.436;8.672;2022-11-14T01:26:31;99486.88;;;2.28;100.00
76257;BME280;65074;50.436;8.672;2022-11-14T01:29:15;99495.19;;;2.25;100.00
76257;BME280;65074;50.436;8.672;2022-11-14T01:31:59;99499.25;;;2.21;100.00
76257;BME280;65074;50.436;8.672;2022-11-14T01:34:45;99491.69;;;2.18;100.00
76257;BME280;65074;50.436;8.672;2022-11-14T01:37:29;99491.94;;;2.23;100.00
76257;BME280;65074;50.436;8.672;2022-11-14T01:40:13;99486.00;;;2.21;100.00
76257;BME280;65074;50.436;8.672;2022-11-14T01:46:00;99481.94;;;2.25;100.00
76257;BME280;65074;50.436;8.672;2022-11-14T01:49:02;99472.94;;;2.19;100.00
76257;BME280;65074;50.436;8.672;2022-11-14T01:54:36;99459.19;;;2.09;100.00
76257;BME280;65074;50.436;8.672;2022-11-14T01:57:37;99456.06;;;2.06;100.00
76257;BME280;65074;50.436;8.672;2022-11-14T02:00:23;99458.31;;;2.02;100.00
76257;BME280;65074;50.436;8.672;2022-11-14T02:03:07;99458.88;;;1.97;100.00
76257;BME280;65074;50.436;8.672;2022-11-14T02:05:52;99453.75;;;1.96;100.00
76257;BME280;65074;50.436;8.672;2022-11-14T02:08:37;99456.16;;;1.91;100.00
76257;BME280;65074;50.436;8.672;2022-11-14T02:11:22;99445.94;;;1.88;100.00
76257;BME280;65074;50.436;8.672;2022-11-14T02:14:06;99441.44;;;1.88;100.00
76257;BME280;65074;50.436;8.672;2022-11-14T02:16:50;99441.44;;;1.88;100.00
76257;BME280;65074;50.436;8.672;2022-11-14T02:19:48;99438.94;;;1.80;100.00
76257;BME280;65074;50.436;8.672;2022-11-14T02:22:32;99438.38;;;1.85;100.00
76257;BME280;65074;50.436;8.672;2022-11-14T02:25:17;99428.97;;;1.82;100.00
76257;BME280;65074;50.436;8.672;2022-11-14T02:28:03;99438.13;;;1.80;100.00
76257;BME280;65074;50.436;8.672;2022-11-14T02:30:47;99436.09;;;1.82;100.00
76257;BME280;65074;50.436;8.672;2022-11-14T02:33:32;99431.75;;;1.74;100.00
76257;BME280;65074;50.436;8.672;2022-11-14T02:36:16;99432.97;;;1.72;100.00
76257;BME280;65074;50.436;8.672;2022-11-14T02:39:00;99431.88;;;1.66;100.00
76257;BME280;65074;50.436;8.672;2022-11-14T02:41:44;99428.16;;;1.82;100.00
76257;BME280;65074;50.436;8.672;2022-11-14T02:44:28;99422.59;;;1.77;100.00
76257;BME280;65074;50.436;8.672;2022-11-14T02:47:11;99421.97;;;1.75;100.00
76257;BME280;65074;50.436;8.672;2022-11-14T02:49:55;99412.38;;;1.74;100.00
76257;BME280;65074;50.436;8.672;2022-11-14T02:52:39;99408.03;;;1.66;100.00
76257;BME280;65074;50.436;8.672;2022-11-14T02:55:23;99412.50;;;1.66;100.00
76257;BME280;65074;50.436;8.672;2022-11-14T02:58:07;99408.66;;;1.68;100.00
76257;BME280;65074;50.436;8.672;2022-11-14T03:00:51;99405.19;;;1.68;100.00
76257;BME280;65074;50.436;8.672;2022-11-14T03:03:35;99405.38;;;1.66;100.00
76257;BME280;65074;50.436;8.672;2022-11-14T03:06:19;99401.47;;;1.62;100.00
76257;BME280;65074;50.436;8.672;2022-11-14T03:09:03;99393.53;;;1.62;100.00
76257;BME280;65074;50.436;8.672;2022-11-14T03:11:47;99386.22;;;1.71;100.00
76257;BME280;65074;50.436;8.672;2022-11-14T03:14:31;99385.97;;;1.66;100.00
76257;BME280;65074;50.436;8.672;2022-11-14T03:17:15;99392.19;;;1.52;100.00
76257;BME280;65074;50.436;8.672;2022-11-14T03:19:59;99383.00;;;1.48;100.00
76257;BME280;65074;50.436;8.672;2022-11-14T03:22:43;99383.31;;;1.38;100.00
76257;BME280;65074;50.436;8.672;2022-11-14T03:25:27;99380.47;;;1.40;100.00
76257;BME280;65074;50.436;8.672;2022-11-14T03:28:11;99384.81;;;1.47;100.00
76257;BME280;65074;50.436;8.672;2022-11-14T03:30:55;99376.88;;;1.47;100.00
76257;BME280;65074;50.436;8.672;2022-11-14T03:33:39;99381.38;;;1.53;100.00
76257;BME280;65074;50.436;8.672;2022-11-14T03:36:23;99380.59;;;1.53;100.00
76257;BME280;65074;50.436;8.672;2022-11-14T03:39:07;99368.13;;;1.53;100.00
76257;BME280;65074;50.436;8.672;2022-11-14T03:41:51;99372.22;;;1.56;100.00
76257;BME280;65074;50.436;8.672;2022-11-14T03:44:35;99375.66;;;1.50;100.00
76257;BME280;65074;50.436;8.672;2022-11-14T03:47:19;99376.91;;;1.54;100.00
76257;BME280;65074;50.436;8.672;2022-11-14T03:50:04;99372.19;;;1.49;100.00
76257;BME280;65074;50.436;8.672;2022-11-14T03:52:48;99367.34;;;1.53;100.00
76257;BME280;65074;50.436;8.672;2022-11-14T03:55:33;99372.19;;;1.49;100.00
76257;BME280;65074;50.436;8.672;2022-11-14T03:58:17;99370.75;;;1.47;100.00
76257;BME280;65074;50.436;8.672;2022-11-14T04:01:00;99365.97;;;1.36;100.00
76257;BME280;65074;50.436;8.672;2022-11-14T04:03:46;99371.44;;;1.34;100.00
76257;BME280;65074;50.436;8.672;2022-11-14T04:06:30;99362.88;;;1.32;100.00
76257;BME280;65074;50.436;8.672;2022-11-14T04:09:14;99368.38;;;1.30;100.00
76257;BME280;65074;50.436;8.672;2022-11-14T04:11:57;99364.25;;;1.28;100.00
76257;BME280;65074;50.436;8.672;2022-11-14T04:14:41;99362.03;;;1.31;100.00
76257;BME280;65074;50.436;8.672;2022-11-14T04:17:25;99362.72;;;1.19;100.00
76257;BME280;65074;50.436;8.672;2022-11-14T04:20:10;99354.94;;;1.11;100.00
76257;BME280;65074;50.436;8.672;2022-11-14T04:22:54;99354.47;;;1.07;100.00
76257;BME280;65074;50.436;8.672;2022-11-14T04:25:38;99348.31;;;1.00;100.00
76257;BME280;65074;50.436;8.672;2022-11-14T04:28:22;99344.25;;;1.04;100.00
76257;BME280;65074;50.436;8.672;2022-11-14T04:31:06;99347.72;;;1.05;100.00
76257;BME280;65074;50.436;8.672;2022-11-14T04:33:49;99344.56;;;0.95;100.00
76257;BME280;65074;50.436;8.672;2022-11-14T04:36:34;99345.59;;;0.94;100.00
76257;BME280;65074;50.436;8.672;2022-11-14T04:39:18;99348.66;;;0.97;100.00
76257;BME280;65074;50.436;8.672;2022-11-14T04:42:02;99341.75;;;0.96;100.00
76257;BME280;65074;50.436;8.672;2022-11-14T04:44:46;99336.47;;;0.96;100.00
76257;BME280;65074;50.436;8.672;2022-11-14T04:47:30;99338.66;;;0.93;100.00
76257;BME280;65074;50.436;8.672;2022-11-14T04:50:14;99340.84;;;0.89;100.00
76257;BME280;65074;50.436;8.672;2022-11-14T04:52:58;99334.91;;;0.87;100.00
76257;BME280;65074;50.436;8.672;2022-11-14T04:55:43;99333.72;;;0.90;100.00
76257;BME280;65074;50.436;8.672;2022-11-14T04:58:27;99327.53;;;0.83;100.00
76257;BME280;65074;50.436;8.672;2022-11-14T05:01:12;99322.00;;;0.78;100.00
76257;BME280;65074;50.436;8.672;2022-11-14T05:03:56;99329.72;;;0.79;100.00
76257;BME280;65074;50.436;8.672;2022-11-14T05:06:40;99329.31;;;0.76;100.00
76257;BME280;65074;50.436;8.672;2022-11-14T05:09:24;99331.38;;;0.80;100.00
76257;BME280;65074;50.436;8.672;2022-11-14T05:12:08;99327.47;;;0.76;100.00
76257;BME280;65074;50.436;8.672;2022-11-14T05:14:52;99329.31;;;0.76;100.00
76257;BME280;65074;50.436;8.672;2022-11-14T05:17:36;99321.94;;;0.71;100.00
76257;BME280;65074;50.436;8.672;2022-11-14T05:20:20;99318.41;;;0.64;100.00
76257;BME280;65074;50.436;8.672;2022-11-14T05:23:04;99318.19;;;0.65;100.00
76257;BME280;65074;50.436;8.672;2022-11-14T05:26:04;99316.28;;;0.59;100.00
76257;BME280;65074;50.436;8.672;2022-11-14T05:28:49;99309.28;;;0.52;100.00
76257;BME280;65074;50.436;8.672;2022-11-14T05:31:33;99318.03;;;0.52;100.00
76257;BME280;65074;50.436;8.672;2022-11-14T05:34:17;99310.09;;;0.52;100.00
76257;BME280;65074;50.436;8.672;2022-11-14T05:37:01;99313.31;;;0.48;100.00
76257;BME280;65074;50.436;8.672;2022-11-14T05:39:46;99316.41;;;0.51;100.00
76257;BME280;65074;50.436;8.672;2022-11-14T05:42:31;99320.16;;;0.42;100.00
76257;BME280;65074;50.436;8.672;2022-11-14T05:45:15;99316.88;;;0.40;100.00
76257;BME280;65074;50.436;8.672;2022-11-14T05:47:59;99317.72;;;0.41;100.00
76257;BME280;65074;50.436;8.672;2022-11-14T05:50:43;99323.09;;;0.33;100.00
76257;BME280;65074;50.436;8.672;2022-11-14T05:53:28;99326.56;;;0.33;100.00
76257;BME280;65074;50.436;8.672;2022-11-14T05:56:12;99331.50;;;0.36;100.00
76257;BME280;65074;50.436;8.672;2022-11-14T05:58:56;99325.66;;;0.41;100.00
76257;BME280;65074;50.436;8.672;2022-11-14T06:01:40;99324.91;;;0.47;100.00
76257;BME280;65074;50.436;8.672;2022-11-14T06:04:24;99330.00;;;0.48;100.00
76257;BME280;65074;50.436;8.672;2022-11-14T06:07:08;99333.66;;;0.47;100.00
76257;BME280;65074;50.436;8.672;2022-11-14T06:09:52;99335.31;;;0.48;100.00
76257;BME280;65074;50.436;8.672;2022-11-14T06:12:36;99336.03;;;0.42;100.00
76257;BME280;65074;50.436;8.672;2022-11-14T06:15:20;99332.03;;;0.46;100.00
76257;BME280;65074;50.436;8.672;2022-11-14T06:18:04;99344.13;;;0.55;100.00
76257;BME280;65074;50.436;8.672;2022-11-14T06:20:48;99336.53;;;0.67;100.00
76257;BME280;65074;50.436;8.672;2022-11-14T06:23:32;99344.00;;;0.78;100.00
76257;BME280;65074;50.436;8.672;2022-11-14T06:26:23;99350.13;;;0.79;100.00
76257;BME280;65074;50.436;8.672;2022-11-14T06:29:08;99351.09;;;0.78;100.00
76257;BME280;65074;50.436;8.672;2022-11-14T06:31:53;99354.66;;;0.85;100.00
76257;BME280;65074;50.436;8.672;2022-11-14T06:34:37;99358.00;;;0.93;100.00
76257;BME280;65074;50.436;8.672;2022-11-14T06:37:21;99355.22;;;1.01;100.00
76257;BME280;65074;50.436;8.672;2022-11-14T06:40:06;99354.09;;;1.10;100.00
76257;BME280;65074;50.436;8.672;2022-11-14T06:42:49;99351.75;;;1.22;100.00
76257;BME280;65074;50.436;8.672;2022-11-14T06:45:33;99352.22;;;1.25;100.00
76257;BME280;65074;50.436;8.672;2022-11-14T06:48:17;99352.63;;;1.29;100.00
76257;BME280;65074;50.436;8.672;2022-11-14T06:51:03;99347.66;;;1.41;100.00
76257;BME280;65074;50.436;8.672;2022-11-14T06:53:47;99345.06;;;1.47;100.00
76257;BME280;65074;50.436;8.672;2022-11-14T06:56:31;99355.94;;;1.59;100.00
76257;BME280;65074;50.436;8.672;2022-11-14T06:59:15;99348.88;;;1.66;100.00
76257;BME280;65074;50.436;8.672;2022-11-14T07:01:59;99346.06;;;1.74;100.00
76257;BME280;65074;50.436;8.672;2022-11-14T07:04:43;99340.41;;;2.11;100.00
76257;BME280;65074;50.436;8.672;2022-11-14T07:07:27;99345.13;;;2.22;100.00
76257;BME280;65074;50.436;8.672;2022-11-14T07:10:11;99352.44;;;2.54;100.00
76257;BME280;65074;50.436;8.672;2022-11-14T07:12:55;99347.19;;;2.74;100.00
76257;BME280;65074;50.436;8.672;2022-11-14T07:15:39;99349.94;;;2.94;100.00
76257;BME280;65074;50.436;8.672;2022-11-14T07:18:23;99363.44;;;3.12;100.00
76257;BME280;65074;50.436;8.672;2022-11-14T07:21:07;99363.47;;;3.25;100.00
76257;BME280;65074;50.436;8.672;2022-11-14T07:23:51;99367.16;;;3.44;100.00
76257;BME280;65074;50.436;8.672;2022-11-14T07:26:35;99369.22;;;3.42;100.00
76257;BME280;65074;50.436;8.672;2022-11-14T07:29:19;99360.63;;;3.40;100.00
76257;BME280;65074;50.436;8.672;2022-11-14T07:32:03;99359.81;;;3.46;100.00
76257;BME280;65074;50.436;8.672;2022-11-14T07:34:48;99353.69;;;3.52;100.00
76257;BME280;65074;50.436;8.672;2022-11-14T07:37:32;99356.16;;;3.60;100.00
76257;BME280;65074;50.436;8.672;2022-11-14T07:40:16;99350.41;;;3.63;100.00
76257;BME280;65074;50.436;8.672;2022-11-14T07:43:00;99352.88;;;3.64;100.00
76257;BME280;65074;50.436;8.672;2022-11-14T07:45:44;99350.41;;;3.76;100.00
76257;BME280;65074;50.436;8.672;2022-11-14T07:48:29;99353.47;;;3.86;100.00
76257;BME280;65074;50.436;8.672;2022-11-14T07:51:18;99359.41;;;3.81;100.00
76257;BME280;65074;50.436;8.672;2022-11-14T07:54:02;99359.19;;;3.89;100.00
76257;BME280;65074;50.436;8.672;2022-11-14T07:56:46;99356.75;;;3.81;100.00
76257;BME280;65074;50.436;8.672;2022-11-14T07:59:30;99357.34;;;3.83;100.00
76257;BME280;65074;50.436;8.672;2022-11-14T08:02:14;99361.63;;;3.91;100.00
76257;BME280;65074;50.436;8.672;2022-11-14T08:04:58;99362.47;;;4.05;100.00
76257;BME280;65074;50.436;8.672;2022-11-14T08:07:44;99374.91;;;4.11;100.00
76257;BME280;65074;50.436;8.672;2022-11-14T08:10:28;99373.50;;;4.15;100.00
76257;BME280;65074;50.436;8.672;2022-11-14T08:13:12;99372.25;;;4.11;100.00
76257;BME280;65074;50.436;8.672;2022-11-14T08:15:56;99368.59;;;3.99;100.00
76257;BME280;65074;50.436;8.672;2022-11-14T08:18:40;99368.78;;;4.04;100.00
76257;BME280;65074;50.436;8.672;2022-11-14T08:21:24;99369.41;;;3.99;100.00
76257;BME280;65074;50.436;8.672;2022-11-14T08:24:08;99367.16;;;4.09;100.00
76257;BME280;65074;50.436;8.672;2022-11-14T08:26:52;99361.22;;;4.07;100.00
76257;BME280;65074;50.436;8.672;2022-11-14T08:29:36;99355.47;;;4.17;100.00
76257;BME280;65074;50.436;8.672;2022-11-14T08:32:20;99346.63;;;4.29;100.00
76257;BME280;65074;50.436;8.672;2022-11-14T08:35:04;99351.69;;;4.44;100.00
76257;BME280;65074;50.436;8.672;2022-11-14T08:37:48;99349.81;;;4.51;100.00
76257;BME280;65074;50.436;8.672;2022-11-14T08:40:32;99350.84;;;4.50;100.00
76257;BME280;65074;50.436;8.672;2022-11-14T08:43:16;99364.56;;;4.53;100.00
76257;BME280;65074;50.436;8.672;2022-11-14T08:46:01;99369.91;;;4.47;100.00
76257;BME280;65074;50.436;8.672;2022-11-14T08:48:45;99364.56;;;4.53;100.00
76257;BME280;65074;50.436;8.672;2022-11-14T08:51:29;99359.22;;;4.60;100.00
76257;BME280;65074;50.436;8.672;2022-11-14T08:54:13;99365.53;;;4.66;100.00
76257;BME280;65074;50.436;8.672;2022-11-14T08:56:57;99364.13;;;4.63;100.00
76257;BME280;65074;50.436;8.672;2022-11-14T08:59:41;99368.00;;;4.67;100.00
76257;BME280;65074;50.436;8.672;2022-11-14T09:02:25;99354.38;;;4.82;100.00
76257;BME280;65074;50.436;8.672;2022-11-14T09:05:09;99358.06;;;4.87;100.00
76257;BME280;65074;50.436;8.672;2022-11-14T09:07:53;99354.94;;;4.97;100.00
76257;BME280;65074;50.436;8.672;2022-11-14T09:10:37;99353.69;;;4.99;100.00
76257;BME280;65074;50.436;8.672;2022-11-14T09:13:21;99370.72;;;4.98;100.00
76257;BME280;65074;50.436;8.672;2022-11-14T09:16:06;99360.66;;;5.00;100.00
76257;BME280;65074;50.436;8.672;2022-11-14T09:18:50;99366.59;;;5.02;100.00
76257;BME280;65074;50.436;8.672;2022-11-14T09:21:34;99376.91;;;4.92;100.00
76257;BME280;65074;50.436;8.672;2022-11-14T09:24:18;99373.59;;;4.97;100.00
76257;BME280;65074;50.436;8.672;2022-11-14T09:27:02;99376.19;;;5.10;100.00
76257;BME280;65074;50.436;8.672;2022-11-14T09:29:45;99372.50;;;5.11;100.00
76257;BME280;65074;50.436;8.672;2022-11-14T09:32:29;99381.53;;;5.10;100.00
76257;BME280;65074;50.436;8.672;2022-11-14T09:35:13;99382.72;;;5.14;100.00
76257;BME280;65074;50.436;8.672;2022-11-14T09:38:02;99379.84;;;5.15;99.86
76257;BME280;65074;50.436;8.672;2022-11-14T09:47:03;99362.38;;;5.19;100.00
76257;BME280;65074;50.436;8.672;2022-11-14T09:49:52;99364.16;;;5.32;99.88
76257;BME280;65074;50.436;8.672;2022-11-14T09:53:04;99364.09;;;5.39;99.79
76257;BME280;65074;50.436;8.672;2022-11-14T09:55:50;99353.22;;;5.40;99.86
76257;BME280;65074;50.436;8.672;2022-11-14T09:58:34;99361.19;;;5.47;99.48
76257;BME280;65074;50.436;8.672;2022-11-14T10:04:54;99342.41;;;5.60;99.11
76257;BME280;65074;50.436;8.672;2022-11-14T10:07:53;99333.09;;;5.69;99.00
76257;BME280;65074;50.436;8.672;2022-11-14T10:14:18;99321.59;;;5.68;99.41
76257;BME280;65074;50.436;8.672;2022-11-14T10:17:21;99324.81;;;5.77;98.78
76257;BME280;65074;50.436;8.672;2022-11-14T10:20:23;99333.63;;;5.77;98.70
76257;BME280;65074;50.436;8.672;2022-11-14T10:26:27;99329.25;;;5.83;98.64
76257;BME280;65074;50.436;8.672;2022-11-14T10:38:40;99328.84;;;5.86;99.84
76257;BME280;65074;50.436;8.672;2022-11-14T10:41:24;99316.91;;;5.88;99.73
76257;BME280;65074;50.436;8.672;2022-11-14T10:44:14;99316.91;;;5.88;99.77
76257;BME280;65074;50.436;8.672;2022-11-14T10:47:11;99316.94;;;6.07;99.75
76257;BME280;65074;50.436;8.672;2022-11-14T10:50:03;99319.59;;;6.25;98.58
76257;BME280;65074;50.436;8.672;2022-11-14T10:52:59;99314.72;;;6.22;97.96
76257;BME280;65074;50.436;8.672;2022-11-14T10:55:48;99307.38;;;6.17;98.71
76257;BME280;65074;50.436;8.672;2022-11-14T10:58:33;99302.13;;;6.29;98.75
76257;BME280;65074;50.436;8.672;2022-11-14T11:04:37;99305.09;;;6.39;97.78
76257;BME280;65074;50.436;8.672;2022-11-14T11:07:43;99299.66;;;6.45;98.12
76257;BME280;65074;50.436;8.672;2022-11-14T11:10:47;99296.28;;;6.50;97.51
76257;BME280;65074;50.436;8.672;2022-11-14T11:13:53;99306.44;;;6.60;97.20
76257;BME280;65074;50.436;8.672;2022-11-14T11:16:38;99297.03;;;6.57;96.69
76257;BME280;65074;50.436;8.672;2022-11-14T11:19:24;99289.63;;;6.59;96.51
76257;BME280;65074;50.436;8.672;2022-11-14T11:25:27;99291.09;;;6.85;95.49
76257;BME280;65074;50.436;8.672;2022-11-14T11:28:18;99281.13;;;6.92;95.76
76257;BME280;65074;50.436;8.672;2022-11-14T11:31:09;99284.03;;;6.90;95.22
76257;BME280;65074;50.436;8.672;2022-11-14T11:33:54;99277.56;;;6.98;95.37
76257;BME280;65074;50.436;8.672;2022-11-14T11:36:50;99276.56;;;7.22;94.28
76257;BME280;65074;50.436;8.672;2022-11-14T11:39:42;99274.25;;;7.26;94.13
76257;BME280;65074;50.436;8.672;2022-11-14T11:42:42;99277.28;;;7.29;94.03
76257;BME280;65074;50.436;8.672;2022-11-14T11:45:29;99277.28;;;7.29;94.11
76257;BME280;65074;50.436;8.672;2022-11-14T11:48:21;99279.03;;;7.35;93.81
76257;BME280;65074;50.436;8.672;2022-11-14T11:51:12;99273.44;;;7.48;94.23
76257;BME280;65074;50.436;8.672;2022-11-14T11:54:18;99264.16;;;7.74;93.50
76257;BME280;65074;50.436;8.672;2022-11-14T11:57:15;99258.69;;;7.92;92.66
76257;BME280;65074;50.436;8.672;2022-11-14T12:00:05;99251.63;;;8.37;90.85
76257;BME280;65074;50.436;8.672;2022-11-14T12:02:51;99240.97;;;9.65;86.74
76257;BME280;65074;50.436;8.672;2022-11-14T12:11:16;99235.94;;;10.07;82.77
76257;BME280;65074;50.436;8.672;2022-11-14T12:14:24;99227.78;;;9.64;85.11
76257;BME280;65074;50.436;8.672;2022-11-14T12:26:49;99220.28;;;11.28;79.41
76257;BME280;65074;50.436;8.672;2022-11-14T12:29:56;99223.22;;;10.41;82.31
76257;BME280;65074;50.436;8.672;2022-11-14T12:32:51;99220.34;;;10.26;83.50
76257;BME280;65074;50.436;8.672;2022-11-14T12:35:49;99224.66;;;10.10;84.70
76257;BME280;65074;50.436;8.672;2022-11-14T12:38:49;99226.69;;;9.60;86.65
76257;BME280;65074;50.436;8.672;2022-11-14T12:41:35;99230.28;;;9.32;87.92
76257;BME280;65074;50.436;8.672;2022-11-14T12:47:12;99209.75;;;9.09;88.50
76257;BME280;65074;50.436;8.672;2022-11-14T12:49:59;99208.22;;;8.97;89.58
76257;BME280;65074;50.436;8.672;2022-11-14T12:52:46;99206.78;;;9.23;88.59
76257;BME280;65074;50.436;8.672;2022-11-14T13:01:21;99206.84;;;9.28;88.11
76257;BME280;65074;50.436;8.672;2022-11-14T13:04:34;99203.75;;;9.19;87.88
76257;BME280;65074;50.436;8.672;2022-11-14T13:10:15;99186.97;;;9.29;87.87
76257;BME280;65074;50.436;8.672;2022-11-14T13:13:12;99177.72;;;9.20;88.03
76257;BME280;65074;50.436;8.672;2022-11-14T13:16:24;99169.41;;;9.21;88.54
76257;BME280;65074;50.436;8.672;2022-11-14T13:19:27;99161.13;;;9.23;88.50
76257;BME280;65074;50.436;8.672;2022-11-14T13:22:44;99152.34;;;9.27;88.30
76257;BME280;65074;50.436;8.672;2022-11-14T13:25:30;99141.88;;;9.26;88.44
76257;BME280;65074;50.436;8.672;2022-11-14T13:38:06;99146.09;;;9.05;90.24
76257;BME280;65074;50.436;8.672;2022-11-14T13:50:38;99133.91;;;8.81;91.54
76257;BME280;65074;50.436;8.672;2022-11-14T13:53:25;99132.28;;;8.80;92.23
76257;BME280;65074;50.436;8.672;2022-11-14T14:05:33;99128.53;;;8.97;94.79
76257;BME280;65074;50.436;8.672;2022-11-14T14:08:47;99121.72;;;8.90;95.71
76257;BME280;65074;50.436;8.672;2022-11-14T14:17:52;99127.00;;;8.85;96.80
76257;BME280;65074;50.436;8.672;2022-11-14T14:23:46;99121.88;;;9.00;95.55
76257;BME280;65074;50.436;8.672;2022-11-14T14:27:00;99121.78;;;8.95;95.64
76257;BME280;65074;50.436;8.672;2022-11-14T14:33:13;99112.53;;;9.02;94.62
76257;BME280;65074;50.436;8.672;2022-11-14T14:35:57;99108.94;;;8.97;95.25
76257;BME280;65074;50.436;8.672;2022-11-14T14:38:41;99108.19;;;9.01;94.73
76257;BME280;65074;50.436;8.672;2022-11-14T14:41:30;99110.81;;;8.96;95.09
76257;BME280;65074;50.436;8.672;2022-11-14T14:44:36;99101.72;;;8.97;95.08
76257;BME280;65074;50.436;8.672;2022-11-14T14:47:41;99099.50;;;8.94;95.52
76257;BME280;65074;50.436;8.672;2022-11-14T14:50:38;99104.06;;;8.94;95.61
76257;BME280;65074;50.436;8.672;2022-11-14T14:53:31;99092.03;;;8.96;95.24
76257;BME280;65074;50.436;8.672;2022-11-14T14:56:20;99091.88;;;9.03;95.07
76257;BME280;65074;50.436;8.672;2022-11-14T14:59:19;99107.56;;;8.94;95.57
76257;BME280;65074;50.436;8.672;2022-11-14T15:02:12;99086.44;;;8.98;94.49
76257;BME280;65074;50.436;8.672;2022-11-14T15:04:58;99085.13;;;9.00;94.68
76257;BME280;65074;50.436;8.672;2022-11-14T15:07:42;99078.13;;;8.99;94.49
76257;BME280;65074;50.436;8.672;2022-11-14T15:10:30;99075.78;;;9.03;94.25
76257;BME280;65074;50.436;8.672;2022-11-14T15:13:16;99079.50;;;9.02;93.92
76257;BME280;65074;50.436;8.672;2022-11-14T15:16:02;99074.16;;;9.02;94.19
76257;BME280;65074;50.436;8.672;2022-11-14T15:18:48;99067.88;;;8.96;94.80
76257;BME280;65074;50.436;8.672;2022-11-14T15:21:33;99067.09;;;8.96;94.84
76257;BME280;65074;50.436;8.672;2022-11-14T15:24:19;99067.03;;;8.91;95.47
76257;BME280;65074;50.436;8.672;2022-11-14T15:27:10;99064.72;;;8.99;94.95
76257;BME280;65074;50.436;8.672;2022-11-14T15:30:00;99055.47;;;8.90;95.32
76257;BME280;65074;50.436;8.672;2022-11-14T15:32:49;99056.22;;;8.86;95.76
76257;BME280;65074;50.436;8.672;2022-11-14T15:35:35;99053.00;;;8.89;95.75
76257;BME280;65074;50.436;8.672;2022-11-14T15:38:23;99059.28;;;8.94;95.52
76257;BME280;65074;50.436;8.672;2022-11-14T15:41:14;99060.34;;;8.93;95.71
76257;BME280;65074;50.436;8.672;2022-11-14T15:43:59;99047.81;;;8.99;95.65
76257;BME280;65074;50.436;8.672;2022-11-14T15:46:47;99051.06;;;9.01;95.63
76257;BME280;65074;50.436;8.672;2022-11-14T15:49:31;99052.19;;;9.05;95.56
76257;BME280;65074;50.436;8.672;2022-11-14T15:52:29;99048.53;;;8.94;96.21
76257;BME280;65074;50.436;8.672;2022-11-14T15:55:19;99051.78;;;8.96;95.89
76257;BME280;65074;50.436;8.672;2022-11-14T15:58:07;99048.81;;;8.93;96.13
76257;BME280;65074;50.436;8.672;2022-11-14T16:00:53;99046.03;;;8.88;96.61
76257;BME280;65074;50.436;8.672;2022-11-14T16:03:37;99049.03;;;8.91;96.67
76257;BME280;65074;50.436;8.672;2022-11-14T16:06:21;99050.94;;;8.91;96.79
76257;BME280;65074;50.436;8.672;2022-11-14T16:09:05;99049.94;;;8.97;96.69
76257;BME280;65074;50.436;8.672;2022-11-14T16:11:49;99057.91;;;9.08;96.29
76257;BME280;65074;50.436;8.672;2022-11-14T16:14:33;99056.75;;;9.04;96.58
76257;BME280;65074;50.436;8.672;2022-11-14T16:17:18;99065.53;;;9.00;97.09
76257;BME280;65074;50.436;8.672;2022-11-14T16:20:09;99059.28;;;8.94;97.46
76257;BME280;65074;50.436;8.672;2022-11-14T16:22:53;99061.28;;;9.04;96.96
76257;BME280;65074;50.436;8.672;2022-11-14T16:25:40;99062.19;;;9.09;96.98
76257;BME280;65074;50.436;8.672;2022-11-14T16:28:24;99064.19;;;9.19;96.49
76257;BME280;65074;50.436;8.672;2022-11-14T16:31:12;99067.63;;;9.14;96.77
76257;BME280;65074;50.436;8.672;2022-11-14T16:33:56;99061.63;;;9.07;97.16
76257;BME280;65074;50.436;8.672;2022-11-14T16:36:40;99057.16;;;9.13;97.07